METAR AND TAF INFORMATION
METAR FOR LIBD
ADDS - METARS form results

(1507 UTC 14 November 2019)
Data provider http://aviationweather.gov/metar/data/
 
METAR text: LIBD 141450Z 20003KT 9999 FEW025 18/10 Q1008
Conditions at: LIBD (BARI/PALESE MACC, IT) observed 1450 UTC 14 November 2019
Temperature: 18.0°C (64°F)
Dewpoint: 10.0°C (50°F) [RH = 59%]
Pressure (altimeter): 29.76 inches Hg (1008.0 mb)
Winds: from the SSW (200 degrees) at 3 MPH (3 knots; 1.5 m/s)
Visibility: 6 or more miles (10+ km)
Ceiling: at least 12,000 feet AGL
Clouds: few clouds at 2500 feet AGL
Weather: no significant weather observed at this time

METAR text: LIBD 141420Z 19002KT 9999 FEW025 18/09 Q1008
Conditions at: LIBD (BARI/PALESE MACC, IT) observed 1420 UTC 14 November 2019
Temperature: 18.0°C (64°F)
Dewpoint: 9.0°C (48°F) [RH = 56%]
Pressure (altimeter): 29.76 inches Hg (1008.0 mb)
Winds: from the S (190 degrees) at 2 MPH (2 knots; 1.0 m/s)
Visibility: 6 or more miles (10+ km)
Ceiling: at least 12,000 feet AGL
Clouds: few clouds at 2500 feet AGL
Weather: no significant weather observed at this time

Forecast for: LIBD (BARI/PALESE MACC, IT)
Text: TAF LIBD 141100Z 1412/1512 16010KT 9999 SCT030
Forecast period: 1200 UTC 14 November 2019 to 0600 UTC 15 November 2019
Forecast type: FROM: standard forecast or significant change
Winds: from the SSE (160 degrees) at 12 MPH (10 knots; 5.1 m/s)
Visibility: 6 or more miles 10+ km)
Ceiling: at least 12,000 feet AGL
Clouds: scattered clouds at 3000 feet AGL
Weather: no significant weather forecast for this period
Text: BECMG 1506/1509 16018G30KT
Forecast period: 0600 to 1200 UTC 15 November 2019
Forecast type: BECOMING: Conditions expected to become as follows by 0900 UTC 15 November 2019
Winds: from the SSE (160 degrees) at 21 MPH (18 knots; 9.3 m/s)
gusting to 34 MPH (30 knots; 15.4 m/s)
Visibility: 6 or more miles 10+ km)
Ceiling: at least 12,000 feet AGL
Clouds: scattered clouds at 3000 feet AGL
Weather: no significant weather forecast for this period

 AIRPORT MAP

 RUNWAY INFORMATION
Runway 07 Runway length 8005 ft Runway width 148 ft
Runway elevation 177 ft Runway displaced threshold 0 ft Runway heading 69
Runway 25 Runway length 8005 ft Runway width 148 ft
Runway elevation 108 ft Runway displaced threshold 0 ft Runway heading 249
Runway 12 Runway length 5512 ft Runway width 164 ft
Runway elevation 108 ft Runway displaced threshold 0 ft Runway heading 123
Runway 30 Runway length 5512 ft Runway width 164 ft
Runway elevation 108 ft Runway displaced threshold 0 ft Runway heading 303

 AIRPORT FREQUENCIES
Type APP Name APP Frequency 119.5 MHZ
Type TWR Name TWR Frequency 118.3 MHZ

 AIRPORT NEAR NAVIGATION AIDS
Type VOR-DME Name Bari Frequency 116400 KHZ